sensor_id;sensor_type;location;lat;lon;timestamp;temperature;humidity
67186;HTU21D;54116;53.518;49.398;2023-03-14T00:00:13;-4.75;110.95
67186;HTU21D;54116;53.518;49.398;2023-03-14T00:02:40;-4.64;109.17
67186;HTU21D;54116;53.518;49.398;2023-03-14T00:05:06;-4.60;109.78
67186;HTU21D;54116;53.518;49.398;2023-03-14T00:07:35;-4.66;110.37
67186;HTU21D;54116;53.518;49.398;2023-03-14T00:10:04;-4.67;109.49
67186;HTU21D;54116;53.518;49.398;2023-03-14T00:12:31;-4.70;108.67
67186;HTU21D;54116;53.518;49.398;2023-03-14T00:14:58;-4.73;109.51
67186;HTU21D;54116;53.518;49.398;2023-03-14T00:17:26;-4.91;109.42
67186;HTU21D;54116;53.518;49.398;2023-03-14T00:19:53;-5.08;110.83
67186;HTU21D;54116;53.518;49.398;2023-03-14T00:22:19;-5.20;111.19
67186;HTU21D;54116;53.518;49.398;2023-03-14T00:24:46;-5.32;112.71
67186;HTU21D;54116;53.518;49.398;2023-03-14T00:27:12;-5.41;114.45
67186;HTU21D;54116;53.518;49.398;2023-03-14T00:29:38;-5.48;114.60
67186;HTU21D;54116;53.518;49.398;2023-03-14T00:32:04;-5.53;113.42
67186;HTU21D;54116;53.518;49.398;2023-03-14T00:34:33;-5.59;113.87
67186;HTU21D;54116;53.518;49.398;2023-03-14T00:36:59;-5.55;115.06
67186;HTU21D;54116;53.518;49.398;2023-03-14T00:39:25;-5.57;115.57
67186;HTU21D;54116;53.518;49.398;2023-03-14T00:41:51;-5.61;115.03
67186;HTU21D;54116;53.518;49.398;2023-03-14T00:44:17;-5.65;113.61
67186;HTU21D;54116;53.518;49.398;2023-03-14T00:46:43;-5.65;113.60
67186;HTU21D;54116;53.518;49.398;2023-03-14T00:49:10;-5.73;114.02
67186;HTU21D;54116;53.518;49.398;2023-03-14T00:51:36;-5.77;114.06
67186;HTU21D;54116;53.518;49.398;2023-03-14T00:54:02;-5.74;114.54
67186;HTU21D;54116;53.518;49.398;2023-03-14T00:56:28;-5.71;114.00
67186;HTU21D;54116;53.518;49.398;2023-03-14T00:58:55;-5.73;114.99
67186;HTU21D;54116;53.518;49.398;2023-03-14T01:01:22;-5.81;114.77
67186;HTU21D;54116;53.518;49.398;2023-03-14T01:03:51;-5.81;116.98
67186;HTU21D;54116;53.518;49.398;2023-03-14T01:06:20;-5.87;116.63
67186;HTU21D;54116;53.518;49.398;2023-03-14T01:08:47;-5.86;116.98
67186;HTU21D;54116;53.518;49.398;2023-03-14T01:11:14;-5.75;117.12
67186;HTU21D;54116;53.518;49.398;2023-03-14T01:13:41;-5.78;118.34
67186;HTU21D;54116;53.518;49.398;2023-03-14T01:16:09;-5.83;116.55
67186;HTU21D;54116;53.518;49.398;2023-03-14T01:18:36;-5.79;117.44
67186;HTU21D;54116;53.518;49.398;2023-03-14T01:21:04;-5.87;117.30
67186;HTU21D;54116;53.518;49.398;2023-03-14T01:23:34;-5.98;117.95
67186;HTU21D;54116;53.518;49.398;2023-03-14T01:26:00;-6.08;117.54
67186;HTU21D;54116;53.518;49.398;2023-03-14T01:28:27;-6.12;118.95
67186;HTU21D;54116;53.518;49.398;2023-03-14T01:30:53;-6.02;118.99
67186;HTU21D;54116;53.518;49.398;2023-03-14T01:33:19;-5.88;118.74
67186;HTU21D;54116;53.518;49.398;2023-03-14T01:35:49;-5.87;117.35
67186;HTU21D;54116;53.518;49.398;2023-03-14T01:38:15;-5.92;116.94
67186;HTU21D;54116;53.518;49.398;2023-03-14T01:40:43;-5.88;117.71
67186;HTU21D;54116;53.518;49.398;2023-03-14T01:43:18;-5.89;116.97
67186;HTU21D;54116;53.518;49.398;2023-03-14T01:51:31;-6.02;116.30
67186;HTU21D;54116;53.518;49.398;2023-03-14T01:54:04;-6.05;115.35
67186;HTU21D;54116;53.518;49.398;2023-03-14T01:56:31;-6.05;116.02
67186;HTU21D;54116;53.518;49.398;2023-03-14T01:58:58;-6.13;116.41
67186;HTU21D;54116;53.518;49.398;2023-03-14T02:01:26;-6.20;115.57
67186;HTU21D;54116;53.518;49.398;2023-03-14T02:03:54;-6.23;116.89
67186;HTU21D;54116;53.518;49.398;2023-03-14T02:06:24;-6.26;117.29
67186;HTU21D;54116;53.518;49.398;2023-03-14T02:08:52;-6.27;116.96
67186;HTU21D;54116;53.518;49.398;2023-03-14T02:11:18;-6.32;116.82
67186;HTU21D;54116;53.518;49.398;2023-03-14T02:13:45;-6.35;116.68
67186;HTU21D;54116;53.518;49.398;2023-03-14T02:16:11;-6.33;116.82
67186;HTU21D;54116;53.518;49.398;2023-03-14T02:18:37;-6.32;117.42
67186;HTU21D;54116;53.518;49.398;2023-03-14T02:27:10;-6.33;116.02
67186;HTU21D;54116;53.518;49.398;2023-03-14T02:29:49;-6.28;116.18
67186;HTU21D;54116;53.518;49.398;2023-03-14T02:32:17;-6.20;116.28
67186;HTU21D;54116;53.518;49.398;2023-03-14T02:34:46;-6.21;116.03
67186;HTU21D;54116;53.518;49.398;2023-03-14T02:37:15;-6.23;116.06
67186;HTU21D;54116;53.518;49.398;2023-03-14T02:39:44;-6.23;115.49
67186;HTU21D;54116;53.518;49.398;2023-03-14T02:42:12;-6.21;115.47
67186;HTU21D;54116;53.518;49.398;2023-03-14T02:47:34;-6.06;113.32
67186;HTU21D;54116;53.518;49.398;2023-03-14T02:50:13;-6.00;114.00
67186;HTU21D;54116;53.518;49.398;2023-03-14T02:52:40;-5.96;112.97
67186;HTU21D;54116;53.518;49.398;2023-03-14T02:55:07;-5.92;113.18
67186;HTU21D;54116;53.518;49.398;2023-03-14T02:57:33;-5.86;113.58
67186;HTU21D;54116;53.518;49.398;2023-03-14T03:00:01;-5.78;112.83
67186;HTU21D;54116;53.518;49.398;2023-03-14T03:02:28;-5.64;112.82
67186;HTU21D;54116;53.518;49.398;2023-03-14T03:04:55;-5.49;112.23
67186;HTU21D;54116;53.518;49.398;2023-03-14T03:07:21;-5.40;111.61
67186;HTU21D;54116;53.518;49.398;2023-03-14T03:09:47;-5.31;111.20
67186;HTU21D;54116;53.518;49.398;2023-03-14T03:12:14;-5.14;111.86
67186;HTU21D;54116;53.518;49.398;2023-03-14T03:14:40;-4.91;111.29
67186;HTU21D;54116;53.518;49.398;2023-03-14T03:17:07;-4.75;109.93
67186;HTU21D;54116;53.518;49.398;2023-03-14T03:19:33;-4.60;109.07
67186;HTU21D;54116;53.518;49.398;2023-03-14T03:22:00;-4.58;108.07
67186;HTU21D;54116;53.518;49.398;2023-03-14T03:24:26;-4.58;107.38
67186;HTU21D;54116;53.518;49.398;2023-03-14T03:26:53;-4.55;108.30
67186;HTU21D;54116;53.518;49.398;2023-03-14T03:29:19;-4.52;107.38
67186;HTU21D;54116;53.518;49.398;2023-03-14T03:31:47;-4.48;105.21
67186;HTU21D;54116;53.518;49.398;2023-03-14T03:34:13;-4.49;104.43
67186;HTU21D;54116;53.518;49.398;2023-03-14T03:36:40;-4.38;105.88
67186;HTU21D;54116;53.518;49.398;2023-03-14T03:39:07;-4.37;105.41
67186;HTU21D;54116;53.518;49.398;2023-03-14T03:41:33;-4.27;105.60
67186;HTU21D;54116;53.518;49.398;2023-03-14T03:43:59;-4.12;104.44
67186;HTU21D;54116;53.518;49.398;2023-03-14T03:46:26;-4.05;102.78
67186;HTU21D;54116;53.518;49.398;2023-03-14T03:48:57;-4.00;103.70
67186;HTU21D;54116;53.518;49.398;2023-03-14T03:51:23;-3.97;101.89
67186;HTU21D;54116;53.518;49.398;2023-03-14T03:53:50;-3.97;101.48
67186;HTU21D;54116;53.518;49.398;2023-03-14T03:56:16;-3.94;101.19
67186;HTU21D;54116;53.518;49.398;2023-03-14T03:58:43;-3.40;103.53
67186;HTU21D;54116;53.518;49.398;2023-03-14T04:01:10;-2.08;97.95
67186;HTU21D;54116;53.518;49.398;2023-03-14T04:03:39;-0.69;89.96
67186;HTU21D;54116;53.518;49.398;2023-03-14T04:06:09;-0.99;85.02
67186;HTU21D;54116;53.518;49.398;2023-03-14T04:08:35;-0.68;89.62
67186;HTU21D;54116;53.518;49.398;2023-03-14T04:11:03;0.46;80.87
67186;HTU21D;54116;53.518;49.398;2023-03-14T04:13:29;1.28;78.56
67186;HTU21D;54116;53.518;49.398;2023-03-14T04:15:56;2.14;74.25
67186;HTU21D;54116;53.518;49.398;2023-03-14T04:18:25;3.55;67.36
67186;HTU21D;54116;53.518;49.398;2023-03-14T04:20:52;5.47;63.66
67186;HTU21D;54116;53.518;49.398;2023-03-14T04:23:19;6.85;58.00
67186;HTU21D;54116;53.518;49.398;2023-03-14T04:25:46;7.83;52.75
67186;HTU21D;54116;53.518;49.398;2023-03-14T04:28:12;8.78;50.79
67186;HTU21D;54116;53.518;49.398;2023-03-14T04:30:38;9.25;45.78
67186;HTU21D;54116;53.518;49.398;2023-03-14T04:33:04;9.34;49.25
67186;HTU21D;54116;53.518;49.398;2023-03-14T04:35:31;9.61;48.03
67186;HTU21D;54116;53.518;49.398;2023-03-14T04:37:57;9.57;46.96
67186;HTU21D;54116;53.518;49.398;2023-03-14T04:40:25;10.33;43.97
67186;HTU21D;54116;53.518;49.398;2023-03-14T04:42:52;10.53;45.12
67186;HTU21D;54116;53.518;49.398;2023-03-14T04:45:18;10.35;41.69
67186;HTU21D;54116;53.518;49.398;2023-03-14T04:47:45;10.41;43.81
67186;HTU21D;54116;53.518;49.398;2023-03-14T04:50:12;10.93;42.59
67186;HTU21D;54116;53.518;49.398;2023-03-14T04:52:38;11.41;39.27
67186;HTU21D;54116;53.518;49.398;2023-03-14T04:55:05;11.23;41.26
67186;HTU21D;54116;53.518;49.398;2023-03-14T04:57:31;10.84;41.60
67186;HTU21D;54116;53.518;49.398;2023-03-14T04:59:57;10.50;44.46
67186;HTU21D;54116;53.518;49.398;2023-03-14T05:02:24;11.28;41.59
67186;HTU21D;54116;53.518;49.398;2023-03-14T05:04:50;11.60;40.02
67186;HTU21D;54116;53.518;49.398;2023-03-14T05:07:16;11.31;40.28
67186;HTU21D;54116;53.518;49.398;2023-03-14T05:09:42;11.45;41.01
67186;HTU21D;54116;53.518;49.398;2023-03-14T05:12:09;11.91;38.74
67186;HTU21D;54116;53.518;49.398;2023-03-14T05:14:35;11.68;40.04
67186;HTU21D;54116;53.518;49.398;2023-03-14T05:17:01;10.67;42.36
67186;HTU21D;54116;53.518;49.398;2023-03-14T05:19:29;10.48;41.64
67186;HTU21D;54116;53.518;49.398;2023-03-14T05:21:55;9.18;43.13
67186;HTU21D;54116;53.518;49.398;2023-03-14T05:24:22;6.56;50.12
67186;HTU21D;54116;53.518;49.398;2023-03-14T05:26:48;7.53;50.23
67186;HTU21D;54116;53.518;49.398;2023-03-14T05:29:14;9.05;46.88
67186;HTU21D;54116;53.518;49.398;2023-03-14T05:31:41;9.42;45.55
67186;HTU21D;54116;53.518;49.398;2023-03-14T05:34:07;10.41;42.50
67186;HTU21D;54116;53.518;49.398;2023-03-14T05:36:33;11.04;41.59
67186;HTU21D;54116;53.518;49.398;2023-03-14T05:39:00;10.28;42.16
67186;HTU21D;54116;53.518;49.398;2023-03-14T05:41:26;9.50;40.43
67186;HTU21D;54116;53.518;49.398;2023-03-14T05:43:52;8.21;49.24
67186;HTU21D;54116;53.518;49.398;2023-03-14T05:46:19;9.26;44.57
67186;HTU21D;54116;53.518;49.398;2023-03-14T05:48:46;9.68;44.75
67186;HTU21D;54116;53.518;49.398;2023-03-14T05:51:12;9.74;42.95
67186;HTU21D;54116;53.518;49.398;2023-03-14T05:53:39;9.46;42.90
67186;HTU21D;54116;53.518;49.398;2023-03-14T05:56:05;8.06;47.96
67186;HTU21D;54116;53.518;49.398;2023-03-14T05:58:32;8.35;43.79
67186;HTU21D;54116;53.518;49.398;2023-03-14T06:01:02;7.16;50.14
67186;HTU21D;54116;53.518;49.398;2023-03-14T06:03:29;7.39;48.18
67186;HTU21D;54116;53.518;49.398;2023-03-14T06:05:55;7.84;46.96
67186;HTU21D;54116;53.518;49.398;2023-03-14T06:08:21;7.20;48.24
67186;HTU21D;54116;53.518;49.398;2023-03-14T06:10:48;5.97;53.84
67186;HTU21D;54116;53.518;49.398;2023-03-14T06:13:14;6.20;52.05
67186;HTU21D;54116;53.518;49.398;2023-03-14T06:15:41;6.67;51.82
67186;HTU21D;54116;53.518;49.398;2023-03-14T06:18:07;5.60;53.04
67186;HTU21D;54116;53.518;49.398;2023-03-14T06:20:36;5.56;54.07
67186;HTU21D;54116;53.518;49.398;2023-03-14T06:23:06;5.94;54.55
67186;HTU21D;54116;53.518;49.398;2023-03-14T06:25:33;6.57;49.88
67186;HTU21D;54116;53.518;49.398;2023-03-14T06:28:00;6.51;51.26
67186;HTU21D;54116;53.518;49.398;2023-03-14T06:30:26;7.15;50.40
67186;HTU21D;54116;53.518;49.398;2023-03-14T06:32:53;7.00;50.96
67186;HTU21D;54116;53.518;49.398;2023-03-14T06:35:19;6.82;49.33
67186;HTU21D;54116;53.518;49.398;2023-03-14T06:37:45;6.08;52.34
67186;HTU21D;54116;53.518;49.398;2023-03-14T06:40:12;4.59;56.93
67186;HTU21D;54116;53.518;49.398;2023-03-14T06:42:43;3.49;58.74
67186;HTU21D;54116;53.518;49.398;2023-03-14T06:45:10;2.59;62.47
67186;HTU21D;54116;53.518;49.398;2023-03-14T06:47:37;1.94;64.75
67186;HTU21D;54116;53.518;49.398;2023-03-14T06:50:05;1.60;68.31
67186;HTU21D;54116;53.518;49.398;2023-03-14T06:52:32;1.55;68.19
67186;HTU21D;54116;53.518;49.398;2023-03-14T06:54:58;1.62;68.99
67186;HTU21D;54116;53.518;49.398;2023-03-14T06:57:23;1.73;69.51
67186;HTU21D;54116;53.518;49.398;2023-03-14T06:59:49;1.62;68.17
67186;HTU21D;54116;53.518;49.398;2023-03-14T07:02:15;1.65;68.71
67186;HTU21D;54116;53.518;49.398;2023-03-14T07:04:41;1.77;67.48
67186;HTU21D;54116;53.518;49.398;2023-03-14T07:07:07;1.23;67.92
67186;HTU21D;54116;53.518;49.398;2023-03-14T07:09:34;1.03;68.52
67186;HTU21D;54116;53.518;49.398;2023-03-14T07:12:00;0.95;69.98
67186;HTU21D;54116;53.518;49.398;2023-03-14T07:14:26;1.04;68.51
67186;HTU21D;54116;53.518;49.398;2023-03-14T07:16:53;0.87;69.20
67186;HTU21D;54116;53.518;49.398;2023-03-14T07:19:19;0.83;70.32
67186;HTU21D;54116;53.518;49.398;2023-03-14T07:21:45;0.82;72.64
67186;HTU21D;54116;53.518;49.398;2023-03-14T07:24:11;1.26;71.71
67186;HTU21D;54116;53.518;49.398;2023-03-14T07:26:38;1.33;70.00
67186;HTU21D;54116;53.518;49.398;2023-03-14T07:29:05;1.33;70.25
67186;HTU21D;54116;53.518;49.398;2023-03-14T07:31:31;1.52;70.80
67186;HTU21D;54116;53.518;49.398;2023-03-14T07:33:57;1.63;71.40
67186;HTU21D;54116;53.518;49.398;2023-03-14T07:36:23;1.75;67.74
67186;HTU21D;54116;53.518;49.398;2023-03-14T07:38:50;1.42;69.95
67186;HTU21D;54116;53.518;49.398;2023-03-14T07:41:16;1.42;68.97
67186;HTU21D;54116;53.518;49.398;2023-03-14T07:43:42;1.50;70.37
67186;HTU21D;54116;53.518;49.398;2023-03-14T07:46:08;1.76;72.98
67186;HTU21D;54116;53.518;49.398;2023-03-14T07:48:35;1.99;71.19
67186;HTU21D;54116;53.518;49.398;2023-03-14T07:51:01;2.05;68.68
67186;HTU21D;54116;53.518;49.398;2023-03-14T07:53:27;2.15;69.53
67186;HTU21D;54116;53.518;49.398;2023-03-14T07:55:54;2.28;67.85
67186;HTU21D;54116;53.518;49.398;2023-03-14T07:58:21;2.54;67.61
67186;HTU21D;54116;53.518;49.398;2023-03-14T08:00:48;2.65;64.84
67186;HTU21D;54116;53.518;49.398;2023-03-14T08:03:14;2.71;67.49
67186;HTU21D;54116;53.518;49.398;2023-03-14T08:05:40;2.76;66.30
67186;HTU21D;54116;53.518;49.398;2023-03-14T08:08:08;2.80;66.14
67186;HTU21D;54116;53.518;49.398;2023-03-14T08:10:34;2.64;63.87
67186;HTU21D;54116;53.518;49.398;2023-03-14T08:13:01;2.40;66.14
67186;HTU21D;54116;53.518;49.398;2023-03-14T08:15:29;2.25;66.54
67186;HTU21D;54116;53.518;49.398;2023-03-14T08:17:56;2.02;63.91
67186;HTU21D;54116;53.518;49.398;2023-03-14T08:20:25;1.80;67.28
67186;HTU21D;54116;53.518;49.398;2023-03-14T08:22:54;2.00;68.37
67186;HTU21D;54116;53.518;49.398;2023-03-14T08:25:21;2.06;64.91
67186;HTU21D;54116;53.518;49.398;2023-03-14T08:27:47;2.06;64.54
67186;HTU21D;54116;53.518;49.398;2023-03-14T08:30:18;1.93;66.19
67186;HTU21D;54116;53.518;49.398;2023-03-14T08:32:45;2.02;66.64
67186;HTU21D;54116;53.518;49.398;2023-03-14T08:35:12;2.20;67.77
67186;HTU21D;54116;53.518;49.398;2023-03-14T08:37:39;2.23;67.34
67186;HTU21D;54116;53.518;49.398;2023-03-14T08:40:06;2.23;68.70
67186;HTU21D;54116;53.518;49.398;2023-03-14T08:42:33;2.12;66.94
67186;HTU21D;54116;53.518;49.398;2023-03-14T08:44:59;2.05;68.23
67186;HTU21D;54116;53.518;49.398;2023-03-14T08:47:26;2.13;65.69
67186;HTU21D;54116;53.518;49.398;2023-03-14T08:49:53;2.22;65.69
67186;HTU21D;54116;53.518;49.398;2023-03-14T08:52:20;2.26;68.60
67186;HTU21D;54116;53.518;49.398;2023-03-14T08:54:46;2.32;67.34
67186;HTU21D;54116;53.518;49.398;2023-03-14T08:57:13;2.20;66.72
67186;HTU21D;54116;53.518;49.398;2023-03-14T08:59:39;2.06;66.78
67186;HTU21D;54116;53.518;49.398;2023-03-14T09:02:05;1.99;68.96
67186;HTU21D;54116;53.518;49.398;2023-03-14T09:04:32;1.96;68.31
67186;HTU21D;54116;53.518;49.398;2023-03-14T09:07:00;2.02;66.20
67186;HTU21D;54116;53.518;49.398;2023-03-14T09:09:27;1.95;66.27
67186;HTU21D;54116;53.518;49.398;2023-03-14T09:11:54;2.06;64.63
67186;HTU21D;54116;53.518;49.398;2023-03-14T09:14:20;2.16;65.15
67186;HTU21D;54116;53.518;49.398;2023-03-14T09:16:46;2.19;66.27
67186;HTU21D;54116;53.518;49.398;2023-03-14T09:19:12;2.25;66.49
67186;HTU21D;54116;53.518;49.398;2023-03-14T09:21:38;2.21;66.70
67186;HTU21D;54116;53.518;49.398;2023-03-14T09:24:06;2.17;66.39
67186;HTU21D;54116;53.518;49.398;2023-03-14T09:26:32;2.22;65.32
67186;HTU21D;54116;53.518;49.398;2023-03-14T09:28:58;2.19;64.85
67186;HTU21D;54116;53.518;49.398;2023-03-14T09:31:25;2.15;67.42
67186;HTU21D;54116;53.518;49.398;2023-03-14T09:33:51;2.23;65.71
67186;HTU21D;54116;53.518;49.398;2023-03-14T09:36:17;2.21;65.73
67186;HTU21D;54116;53.518;49.398;2023-03-14T09:38:44;2.23;66.09
67186;HTU21D;54116;53.518;49.398;2023-03-14T09:41:15;2.22;64.15
67186;HTU21D;54116;53.518;49.398;2023-03-14T09:43:42;2.22;64.45
67186;HTU21D;54116;53.518;49.398;2023-03-14T09:46:10;2.35;64.00
67186;HTU21D;54116;53.518;49.398;2023-03-14T09:48:37;2.36;61.64
67186;HTU21D;54116;53.518;49.398;2023-03-14T09:51:04;2.26;63.90
67186;HTU21D;54116;53.518;49.398;2023-03-14T09:53:43;2.41;64.55
67186;HTU21D;54116;53.518;49.398;2023-03-14T09:56:17;2.44;62.90
67186;HTU21D;54116;53.518;49.398;2023-03-14T09:58:50;2.51;63.15
67186;HTU21D;54116;53.518;49.398;2023-03-14T10:01:20;2.51;62.12
67186;HTU21D;54116;53.518;49.398;2023-03-14T10:03:47;2.44;63.10
67186;HTU21D;54116;53.518;49.398;2023-03-14T10:06:14;2.55;63.08
67186;HTU21D;54116;53.518;49.398;2023-03-14T10:08:41;2.45;62.58
67186;HTU21D;54116;53.518;49.398;2023-03-14T10:11:16;2.37;63.67
67186;HTU21D;54116;53.518;49.398;2023-03-14T10:14:09;2.35;62.70
67186;HTU21D;54116;53.518;49.398;2023-03-14T10:16:45;2.31;63.23
67186;HTU21D;54116;53.518;49.398;2023-03-14T10:19:14;2.36;63.63
67186;HTU21D;54116;53.518;49.398;2023-03-14T10:21:42;2.41;63.01
67186;HTU21D;54116;53.518;49.398;2023-03-14T10:24:27;2.53;62.35
67186;HTU21D;54116;53.518;49.398;2023-03-14T10:27:17;2.74;63.69
67186;HTU21D;54116;53.518;49.398;2023-03-14T10:30:05;2.76;63.00
67186;HTU21D;54116;53.518;49.398;2023-03-14T10:37:57;2.56;64.03
67186;HTU21D;54116;53.518;49.398;2023-03-14T10:40:50;2.66;65.91
67186;HTU21D;54116;53.518;49.398;2023-03-14T10:43:22;2.76;63.37
67186;HTU21D;54116;53.518;49.398;2023-03-14T10:45:55;2.76;64.50
67186;HTU21D;54116;53.518;49.398;2023-03-14T10:48:36;2.58;63.33
67186;HTU21D;54116;53.518;49.398;2023-03-14T10:51:07;2.54;63.99
67186;HTU21D;54116;53.518;49.398;2023-03-14T10:54:01;2.54;65.06
67186;HTU21D;54116;53.518;49.398;2023-03-14T10:56:34;2.47;65.40
67186;HTU21D;54116;53.518;49.398;2023-03-14T10:59:03;2.51;63.47
67186;HTU21D;54116;53.518;49.398;2023-03-14T11:01:50;2.51;64.95
67186;HTU21D;54116;53.518;49.398;2023-03-14T11:07:12;2.72;63.20
67186;HTU21D;54116;53.518;49.398;2023-03-14T11:15:01;2.66;60.36
67186;HTU21D;54116;53.518;49.398;2023-03-14T11:17:29;2.66;60.29
67186;HTU21D;54116;53.518;49.398;2023-03-14T11:22:54;2.54;59.41
67186;HTU21D;54116;53.518;49.398;2023-03-14T11:25:56;2.45;57.65
67186;HTU21D;54116;53.518;49.398;2023-03-14T11:28:29;2.26;56.91
67186;HTU21D;54116;53.518;49.398;2023-03-14T11:33:37;2.05;55.16
67186;HTU21D;54116;53.518;49.398;2023-03-14T11:36:13;1.92;56.81
67186;HTU21D;54116;53.518;49.398;2023-03-14T11:38:52;1.90;57.29
67186;HTU21D;54116;53.518;49.398;2023-03-14T11:41:36;1.83;57.61
67186;HTU21D;54116;53.518;49.398;2023-03-14T11:44:10;1.82;57.76
67186;HTU21D;54116;53.518;49.398;2023-03-14T11:47:07;1.69;56.56
67186;HTU21D;54116;53.518;49.398;2023-03-14T11:52:33;1.67;59.52
67186;HTU21D;54116;53.518;49.398;2023-03-14T11:57:55;1.71;60.49
67186;HTU21D;54116;53.518;49.398;2023-03-14T12:00:24;1.76;62.16
67186;HTU21D;54116;53.518;49.398;2023-03-14T12:05:39;1.63;63.72
67186;HTU21D;54116;53.518;49.398;2023-03-14T12:10:45;1.45;67.20
67186;HTU21D;54116;53.518;49.398;2023-03-14T12:13:13;1.39;65.31
67186;HTU21D;54116;53.518;49.398;2023-03-14T12:15:58;1.35;67.79
67186;HTU21D;54116;53.518;49.398;2023-03-14T12:21:00;1.21;70.77
67186;HTU21D;54116;53.518;49.398;2023-03-14T12:23:36;1.18;71.93
67186;HTU21D;54116;53.518;49.398;2023-03-14T12:28:43;1.40;72.11
67186;HTU21D;54116;53.518;49.398;2023-03-14T12:45:24;0.76;74.25
67186;HTU21D;54116;53.518;49.398;2023-03-14T12:50:29;0.76;73.18
67186;HTU21D;54116;53.518;49.398;2023-03-14T12:55:58;1.02;73.36
67186;HTU21D;54116;53.518;49.398;2023-03-14T12:58:35;1.09;72.86
67186;HTU21D;54116;53.518;49.398;2023-03-14T13:01:04;1.11;72.86
67186;HTU21D;54116;53.518;49.398;2023-03-14T13:03:57;1.02;72.95
67186;HTU21D;54116;53.518;49.398;2023-03-14T13:06:50;1.06;73.87
67186;HTU21D;54116;53.518;49.398;2023-03-14T13:12:02;1.21;70.84
67186;HTU21D;54116;53.518;49.398;2023-03-14T13:14:31;1.21;69.68
67186;HTU21D;54116;53.518;49.398;2023-03-14T13:17:01;1.28;70.28
67186;HTU21D;54116;53.518;49.398;2023-03-14T13:19:30;1.37;68.35
67186;HTU21D;54116;53.518;49.398;2023-03-14T13:22:20;1.40;67.48
67186;HTU21D;54116;53.518;49.398;2023-03-14T13:24:47;1.35;66.27
67186;HTU21D;54116;53.518;49.398;2023-03-14T13:27:19;1.28;65.51
67186;HTU21D;54116;53.518;49.398;2023-03-14T13:29:50;1.22;63.60
67186;HTU21D;54116;53.518;49.398;2023-03-14T13:32:20;1.12;65.40
67186;HTU21D;54116;53.518;49.398;2023-03-14T13:34:47;0.98;66.25
67186;HTU21D;54116;53.518;49.398;2023-03-14T13:37:21;0.86;66.67
67186;HTU21D;54116;53.518;49.398;2023-03-14T13:39:53;0.79;67.14
67186;HTU21D;54116;53.518;49.398;2023-03-14T13:42:25;0.65;67.64
67186;HTU21D;54116;53.518;49.398;2023-03-14T13:44:53;0.60;68.22
67186;HTU21D;54116;53.518;49.398;2023-03-14T13:47:23;0.55;68.01
67186;HTU21D;54116;53.518;49.398;2023-03-14T13:49:51;0.57;68.12
67186;HTU21D;54116;53.518;49.398;2023-03-14T13:54:56;0.57;69.60
67186;HTU21D;54116;53.518;49.398;2023-03-14T13:57:23;0.55;70.33
67186;HTU21D;54116;53.518;49.398;2023-03-14T14:00:04;0.60;69.94
67186;HTU21D;54116;53.518;49.398;2023-03-14T14:02:34;0.60;69.85
67186;HTU21D;54116;53.518;49.398;2023-03-14T14:05:04;0.59;68.88
67186;HTU21D;54116;53.518;49.398;2023-03-14T14:07:30;0.52;69.97
67186;HTU21D;54116;53.518;49.398;2023-03-14T14:09:58;0.46;71.30
67186;HTU21D;54116;53.518;49.398;2023-03-14T14:12:39;0.40;69.67
67186;HTU21D;54116;53.518;49.398;2023-03-14T14:15:17;0.36;71.01
67186;HTU21D;54116;53.518;49.398;2023-03-14T14:17:46;0.25;71.33
67186;HTU21D;54116;53.518;49.398;2023-03-14T14:20:23;0.18;71.64
67186;HTU21D;54116;53.518;49.398;2023-03-14T14:22:58;0.14;72.40
67186;HTU21D;54116;53.518;49.398;2023-03-14T14:25:25;0.06;73.17
67186;HTU21D;54116;53.518;49.398;2023-03-14T14:27:51;-0.07;74.68
67186;HTU21D;54116;53.518;49.398;2023-03-14T14:32:45;-0.21;74.97
67186;HTU21D;54116;53.518;49.398;2023-03-14T14:35:31;-0.22;74.71
67186;HTU21D;54116;53.518;49.398;2023-03-14T14:37:59;-0.25;76.41
67186;HTU21D;54116;53.518;49.398;2023-03-14T14:40:27;-0.28;76.64
67186;HTU21D;54116;53.518;49.398;2023-03-14T14:42:55;-0.30;77.37
67186;HTU21D;54116;53.518;49.398;2023-03-14T14:45:28;-0.31;77.86
67186;HTU21D;54116;53.518;49.398;2023-03-14T14:50:48;-0.45;78.61
67186;HTU21D;54116;53.518;49.398;2023-03-14T14:53:34;-0.47;80.00
67186;HTU21D;54116;53.518;49.398;2023-03-14T14:56:14;-0.54;80.01
67186;HTU21D;54116;53.518;49.398;2023-03-14T14:58:44;-0.45;79.75
67186;HTU21D;54116;53.518;49.398;2023-03-14T15:01:24;-0.41;79.92
67186;HTU21D;54116;53.518;49.398;2023-03-14T15:03:53;-0.44;80.10
67186;HTU21D;54116;53.518;49.398;2023-03-14T15:06:20;-0.49;80.89
67186;HTU21D;54116;53.518;49.398;2023-03-14T15:08:48;-0.52;81.14
67186;HTU21D;54116;53.518;49.398;2023-03-14T15:11:23;-0.58;81.84
67186;HTU21D;54116;53.518;49.398;2023-03-14T15:13:50;-0.66;82.39
67186;HTU21D;54116;53.518;49.398;2023-03-14T15:16:19;-0.71;83.26
67186;HTU21D;54116;53.518;49.398;2023-03-14T15:18:57;-0.65;82.71
67186;HTU21D;54116;53.518;49.398;2023-03-14T15:21:24;-0.61;82.91
67186;HTU21D;54116;53.518;49.398;2023-03-14T15:23:50;-0.57;83.01
67186;HTU21D;54116;53.518;49.398;2023-03-14T15:26:21;-0.53;82.65
67186;HTU21D;54116;53.518;49.398;2023-03-14T15:28:48;-0.47;83.18
67186;HTU21D;54116;53.518;49.398;2023-03-14T15:31:15;-0.45;82.52
67186;HTU21D;54116;53.518;49.398;2023-03-14T15:33:44;-0.49;82.49
67186;HTU21D;54116;53.518;49.398;2023-03-14T15:36:31;-0.51;83.90
67186;HTU21D;54116;53.518;49.398;2023-03-14T15:38:59;-0.55;83.78
67186;HTU21D;54116;53.518;49.398;2023-03-14T15:41:26;-0.55;83.63
67186;HTU21D;54116;53.518;49.398;2023-03-14T15:43:53;-0.55;85.00
67186;HTU21D;54116;53.518;49.398;2023-03-14T15:46:20;-0.61;85.09
67186;HTU21D;54116;53.518;49.398;2023-03-14T15:48:49;-0.68;85.69
67186;HTU21D;54116;53.518;49.398;2023-03-14T15:51:17;-0.67;86.38
67186;HTU21D;54116;53.518;49.398;2023-03-14T15:53:43;-0.67;86.54
67186;HTU21D;54116;53.518;49.398;2023-03-14T15:56:17;-0.65;86.38
67186;HTU21D;54116;53.518;49.398;2023-03-14T15:58:44;-0.57;86.31
67186;HTU21D;54116;53.518;49.398;2023-03-14T16:01:16;-0.61;86.74
67186;HTU21D;54116;53.518;49.398;2023-03-14T16:03:45;-0.69;87.43
67186;HTU21D;54116;53.518;49.398;2023-03-14T16:06:12;-0.73;87.09
67186;HTU21D;54116;53.518;49.398;2023-03-14T16:08:39;-0.76;88.51
67186;HTU21D;54116;53.518;49.398;2023-03-14T16:11:05;-0.66;88.66
67186;HTU21D;54116;53.518;49.398;2023-03-14T16:13:32;-0.56;88.25
67186;HTU21D;54116;53.518;49.398;2023-03-14T16:15:59;-0.51;88.59
67186;HTU21D;54116;53.518;49.398;2023-03-14T16:18:31;-0.40;87.85
67186;HTU21D;54116;53.518;49.398;2023-03-14T16:21:03;-0.34;87.55
67186;HTU21D;54116;53.518;49.398;2023-03-14T16:23:32;-0.20;86.38
67186;HTU21D;54116;53.518;49.398;2023-03-14T16:25:59;-0.11;86.27
67186;HTU21D;54116;53.518;49.398;2023-03-14T16:28:28;-0.07;87.09
67186;HTU21D;54116;53.518;49.398;2023-03-14T16:31:02;-0.07;86.63
67186;HTU21D;54116;53.518;49.398;2023-03-14T16:33:29;-0.13;86.48
67186;HTU21D;54116;53.518;49.398;2023-03-14T16:35:57;-0.14;86.32